createdAt,value
2019-02-02T00:01:26.908Z,6.90
2019-02-02T00:03:54.331Z,6.90
2019-02-02T00:06:21.708Z,6.90
2019-02-02T00:08:49.147Z,6.90
2019-02-02T00:11:16.478Z,6.90
2019-02-02T00:13:43.884Z,6.90
2019-02-02T00:16:11.142Z,6.80
2019-02-02T00:18:38.551Z,6.80
2019-02-02T00:21:05.987Z,6.80
2019-02-02T00:23:33.309Z,6.80
2019-02-02T00:26:00.705Z,6.90
2019-02-02T00:28:28.040Z,6.90
2019-02-02T00:30:55.382Z,6.80
2019-02-02T00:33:22.789Z,6.90
2019-02-02T00:35:50.120Z,6.80
2019-02-02T00:38:17.520Z,6.80
2019-02-02T00:40:44.920Z,6.80
2019-02-02T00:43:12.216Z,6.80
2019-02-02T00:45:39.541Z,6.80
2019-02-02T00:48:06.870Z,6.80
2019-02-02T00:50:34.477Z,6.80
2019-02-02T00:53:01.780Z,6.80
2019-02-02T00:55:29.107Z,6.80
2019-02-02T00:57:56.624Z,6.90
2019-02-02T01:00:24.443Z,6.90
2019-02-02T01:02:51.857Z,6.90
2019-02-02T01:05:19.598Z,6.90
2019-02-02T01:07:47.093Z,6.90
2019-02-02T01:10:26.079Z,7.00
2019-02-02T01:12:53.565Z,7.00
2019-02-02T01:15:21.092Z,6.90
2019-02-02T01:17:48.560Z,6.90
2019-02-02T01:20:15.964Z,6.90
2019-02-02T01:22:43.871Z,6.90
2019-02-02T01:25:11.463Z,6.90
2019-02-02T01:27:38.767Z,6.90
2019-02-02T01:30:08.414Z,6.80
2019-02-02T01:32:35.752Z,6.90
2019-02-02T01:35:05.166Z,7.00
2019-02-02T01:37:32.487Z,7.00
2019-02-02T01:39:59.901Z,7.00
2019-02-02T01:42:27.203Z,7.00
2019-02-02T01:44:54.618Z,7.00
2019-02-02T01:47:21.998Z,7.00
2019-02-02T01:49:49.388Z,6.90
2019-02-02T01:52:16.812Z,7.00
2019-02-02T01:54:44.089Z,6.80
2019-02-02T01:57:11.439Z,6.60
2019-02-02T01:59:38.741Z,6.60
2019-02-02T02:02:06.029Z,6.60
2019-02-02T02:04:33.299Z,6.70
2019-02-02T02:07:00.588Z,6.70
2019-02-02T02:09:27.985Z,6.50
2019-02-02T02:11:55.371Z,6.60
2019-02-02T02:14:22.663Z,6.80
2019-02-02T02:16:49.995Z,6.90
2019-02-02T02:19:17.504Z,7.00
2019-02-02T02:21:44.895Z,7.00
2019-02-02T02:24:12.195Z,7.10
2019-02-02T02:26:39.497Z,7.10
2019-02-02T02:29:07.201Z,7.10
2019-02-02T02:31:34.501Z,7.00
2019-02-02T02:34:01.980Z,7.10
2019-02-02T02:36:29.421Z,7.10
2019-02-02T02:38:57.121Z,7.10
2019-02-02T02:41:24.435Z,7.10
2019-02-02T02:43:52.010Z,7.10
2019-02-02T02:46:19.444Z,7.00
2019-02-02T02:48:46.828Z,7.10
2019-02-02T02:51:14.139Z,7.10
2019-02-02T02:53:41.514Z,7.00
2019-02-02T02:56:08.830Z,6.90
2019-02-02T02:58:41.661Z,7.10
2019-02-02T03:01:05.660Z,7.00
2019-02-02T03:03:32.969Z,6.90
2019-02-02T03:06:00.329Z,7.00
2019-02-02T03:08:27.711Z,7.10
2019-02-02T03:10:55.032Z,7.00
2019-02-02T03:13:22.315Z,7.00
2019-02-02T03:15:49.625Z,7.00
2019-02-02T03:18:16.981Z,7.10
2019-02-02T03:20:44.755Z,7.10
2019-02-02T03:23:12.089Z,7.10
2019-02-02T03:25:39.391Z,7.10
2019-02-02T03:28:06.788Z,7.10
2019-02-02T03:30:34.195Z,7.10
2019-02-02T03:33:01.509Z,7.10
2019-02-02T03:35:28.834Z,7.10
2019-02-02T03:37:56.238Z,7.10
2019-02-02T03:40:23.723Z,7.00
2019-02-02T03:42:51.582Z,7.00
2019-02-02T03:45:20.547Z,7.00
2019-02-02T03:47:48.768Z,7.00
2019-02-02T03:50:16.056Z,7.00
2019-02-02T03:52:43.490Z,7.10
2019-02-02T03:55:11.903Z,7.10
2019-02-02T03:57:39.278Z,7.00
2019-02-02T04:00:08.902Z,7.10
2019-02-02T04:02:36.341Z,7.10
2019-02-02T04:05:05.310Z,7.00
2019-02-02T04:07:32.729Z,7.10
2019-02-02T04:10:00.183Z,7.10
2019-02-02T04:12:27.955Z,7.00
2019-02-02T04:14:55.235Z,7.10
2019-02-02T04:17:22.892Z,7.10
2019-02-02T04:19:50.275Z,7.10
2019-02-02T04:22:17.567Z,7.10
2019-02-02T04:24:44.865Z,7.00
2019-02-02T04:27:12.191Z,7.10
2019-02-02T04:29:39.523Z,7.00
2019-02-02T04:32:06.927Z,7.00
2019-02-02T04:34:34.226Z,7.00
2019-02-02T04:37:01.607Z,7.00
2019-02-02T04:39:28.907Z,6.90
2019-02-02T04:41:56.223Z,6.90
2019-02-02T04:44:23.485Z,6.70
2019-02-02T04:46:50.791Z,6.80
2019-02-02T04:49:18.195Z,7.00
2019-02-02T04:51:45.587Z,7.00
2019-02-02T04:54:12.867Z,7.10
2019-02-02T04:56:40.180Z,7.10
2019-02-02T04:59:07.486Z,7.20
2019-02-02T05:01:35.091Z,7.10
2019-02-02T05:04:02.614Z,7.10
2019-02-02T05:06:29.980Z,7.10
2019-02-02T05:08:57.423Z,7.10
2019-02-02T05:11:24.804Z,7.10
2019-02-02T05:13:52.127Z,7.10
2019-02-02T05:16:19.444Z,7.10
2019-02-02T05:18:46.905Z,7.10
2019-02-02T05:21:14.246Z,7.00
2019-02-02T05:23:41.641Z,7.10
2019-02-02T05:26:08.956Z,7.10
2019-02-02T05:28:36.259Z,7.00
2019-02-02T05:31:03.661Z,7.10
2019-02-02T05:33:30.987Z,7.10
2019-02-02T05:35:58.253Z,7.10
2019-02-02T05:38:25.596Z,7.10
2019-02-02T05:40:53.156Z,7.10
2019-02-02T05:43:20.446Z,7.10
2019-02-02T05:45:47.770Z,7.00
2019-02-02T05:48:15.194Z,7.00
2019-02-02T05:50:42.500Z,6.90
2019-02-02T05:53:09.964Z,6.90
2019-02-02T05:55:37.256Z,6.90
2019-02-02T05:58:04.596Z,7.00
2019-02-02T06:00:44.099Z,7.00
2019-02-02T06:03:11.520Z,7.10
2019-02-02T06:05:38.819Z,7.00
2019-02-02T06:08:06.239Z,7.10
2019-02-02T06:10:33.932Z,7.00
2019-02-02T06:13:01.254Z,7.10
2019-02-02T06:15:29.186Z,7.10
2019-02-02T06:17:57.078Z,7.10
2019-02-02T06:20:24.408Z,7.00
2019-02-02T06:22:51.688Z,6.90
2019-02-02T06:25:18.998Z,7.00
2019-02-02T06:27:46.382Z,7.00
2019-02-02T06:30:15.622Z,7.00
2019-02-02T06:32:43.014Z,7.00
2019-02-02T06:35:11.538Z,7.10
2019-02-02T06:37:38.838Z,7.00
2019-02-02T06:40:07.300Z,7.00
2019-02-02T06:42:34.601Z,7.00
2019-02-02T06:45:02.061Z,7.00
2019-02-02T06:47:29.459Z,7.00
2019-02-02T06:49:56.784Z,6.90
2019-02-02T06:52:24.075Z,6.90
2019-02-02T06:54:51.711Z,6.90
2019-02-02T06:57:19.000Z,7.00
2019-02-02T06:59:46.303Z,6.90
2019-02-02T07:02:13.610Z,6.90
2019-02-02T07:04:40.916Z,6.90
2019-02-02T07:07:08.334Z,7.00
2019-02-02T07:09:35.600Z,6.80
2019-02-02T07:12:03.066Z,6.80
2019-02-02T07:14:30.412Z,6.70
2019-02-02T07:16:57.713Z,6.50
2019-02-02T07:19:25.142Z,6.30
2019-02-02T07:21:52.441Z,6.30
2019-02-02T07:24:19.961Z,6.30
2019-02-02T07:26:47.283Z,6.50
2019-02-02T07:29:14.712Z,6.60
2019-02-02T07:31:42.120Z,6.30
2019-02-02T07:34:09.833Z,6.40
2019-02-02T07:36:37.269Z,6.60
2019-02-02T07:39:06.998Z,6.70
2019-02-02T07:41:34.398Z,6.50
2019-02-02T07:44:01.774Z,6.60
2019-02-02T07:46:29.203Z,6.80
2019-02-02T07:48:56.636Z,6.80
2019-02-02T07:51:24.049Z,6.90
2019-02-02T07:53:51.386Z,6.90
2019-02-02T07:56:18.743Z,7.00
2019-02-02T07:58:46.190Z,6.90
2019-02-02T08:01:13.834Z,7.00
2019-02-02T08:03:41.240Z,7.10
2019-02-02T08:06:08.579Z,7.10
2019-02-02T08:08:35.887Z,7.10
2019-02-02T08:11:03.773Z,7.20
2019-02-02T08:13:31.237Z,7.20
2019-02-02T08:15:58.877Z,7.10
2019-02-02T08:18:26.204Z,7.10
2019-02-02T08:20:53.685Z,7.20
2019-02-02T08:23:21.045Z,7.20
2019-02-02T08:25:48.411Z,7.20
2019-02-02T08:28:15.823Z,7.20
2019-02-02T08:30:52.014Z,7.20
2019-02-02T08:33:12.365Z,7.20
2019-02-02T08:35:39.782Z,7.20
2019-02-02T08:38:07.174Z,7.20
2019-02-02T08:40:35.009Z,7.00
2019-02-02T08:43:02.406Z,6.80
2019-02-02T08:45:29.780Z,6.90
2019-02-02T08:47:57.108Z,6.70
2019-02-02T08:50:27.138Z,6.80
2019-02-02T08:52:54.559Z,6.90
2019-02-02T08:55:22.338Z,7.00
2019-02-02T08:57:50.058Z,7.00
2019-02-02T09:00:18.343Z,7.00
2019-02-02T09:02:45.747Z,7.20
2019-02-02T09:05:15.739Z,7.30
2019-02-02T09:07:43.182Z,7.40
2019-02-02T09:10:13.618Z,7.40
2019-02-02T09:12:40.919Z,7.40
2019-02-02T09:15:09.460Z,7.50
2019-02-02T09:17:36.777Z,7.10
2019-02-02T09:20:05.556Z,7.00
2019-02-02T09:22:33.051Z,7.10
2019-02-02T09:25:00.423Z,7.10
2019-02-02T09:27:28.145Z,7.20
2019-02-02T09:29:55.846Z,7.20
2019-02-02T09:32:23.182Z,7.30
2019-02-02T09:34:50.509Z,7.50
2019-02-02T09:37:17.917Z,7.60
2019-02-02T09:39:45.246Z,7.70
2019-02-02T09:42:12.592Z,7.80
2019-02-02T09:44:39.973Z,7.90
2019-02-02T09:47:07.757Z,7.90
2019-02-02T09:49:35.053Z,7.90
2019-02-02T09:52:02.408Z,7.90
2019-02-02T09:54:29.834Z,7.80
2019-02-02T09:56:57.274Z,7.90
2019-02-02T09:59:24.739Z,7.90
2019-02-02T10:01:52.186Z,7.80
2019-02-02T10:04:19.551Z,7.80
2019-02-02T10:06:47.048Z,7.80
2019-02-02T10:09:14.893Z,7.90
2019-02-02T10:11:42.441Z,7.90
2019-02-02T10:14:09.877Z,8.00
2019-02-02T10:16:37.322Z,8.10
2019-02-02T10:19:05.024Z,8.20
2019-02-02T10:21:32.421Z,8.10
2019-02-02T10:23:59.818Z,8.20
2019-02-02T10:26:27.170Z,8.20
2019-02-02T10:28:54.889Z,8.10
2019-02-02T10:31:22.353Z,8.20
2019-02-02T10:33:49.774Z,8.10
2019-02-02T10:36:20.005Z,8.10
2019-02-02T10:38:46.512Z,7.90
2019-02-02T10:41:14.305Z,8.00
2019-02-02T10:43:41.959Z,8.00
2019-02-02T10:46:10.783Z,8.00
2019-02-02T10:48:38.962Z,8.10
2019-02-02T10:51:06.345Z,8.10
2019-02-02T10:53:34.171Z,8.10
2019-02-02T10:56:01.491Z,8.00
2019-02-02T10:58:29.978Z,8.10
2019-02-02T11:00:57.504Z,8.10
2019-02-02T11:03:25.003Z,8.10
2019-02-02T11:05:52.461Z,8.20
2019-02-02T11:08:19.967Z,8.30
2019-02-02T11:10:47.628Z,8.30
2019-02-02T11:13:16.893Z,8.20
2019-02-02T11:15:44.693Z,8.30
2019-02-02T11:18:12.269Z,8.20
2019-02-02T11:20:39.713Z,8.30
2019-02-02T11:23:07.522Z,8.40
2019-02-02T11:25:35.037Z,8.20
2019-02-02T11:28:03.072Z,7.90
2019-02-02T11:30:30.652Z,7.40
2019-02-02T11:32:58.373Z,7.60
2019-02-02T11:35:25.828Z,7.60
2019-02-02T11:37:53.754Z,7.90
2019-02-02T11:40:24.708Z,8.10
2019-02-02T11:42:52.132Z,8.40
2019-02-02T11:45:19.517Z,8.60
2019-02-02T11:47:46.993Z,8.60
2019-02-02T11:50:15.218Z,8.90
2019-02-02T11:52:42.634Z,9.10
2019-02-02T11:55:10.958Z,9.10
2019-02-02T11:57:38.282Z,9.30
2019-02-02T12:00:16.427Z,9.20
2019-02-02T12:02:49.579Z,9.30
2019-02-02T12:05:13.998Z,9.40
2019-02-02T12:07:41.445Z,9.30
2019-02-02T12:10:10.393Z,9.10
2019-02-02T12:12:37.848Z,9.20
2019-02-02T12:15:07.642Z,9.10
2019-02-02T12:17:35.459Z,8.90
2019-02-02T12:20:04.197Z,9.30
2019-02-02T12:22:31.682Z,9.60
2019-02-02T12:25:01.710Z,9.80
2019-02-02T12:27:28.961Z,9.70
2019-02-02T12:29:57.964Z,9.60
2019-02-02T12:32:26.972Z,9.70
2019-02-02T12:34:54.675Z,9.80
2019-02-02T12:37:22.113Z,9.70
2019-02-02T12:39:49.576Z,9.80
2019-02-02T12:42:17.426Z,9.90
2019-02-02T12:44:44.891Z,9.80
2019-02-02T12:47:12.223Z,10.00
2019-02-02T12:49:39.604Z,10.00
2019-02-02T12:52:06.960Z,9.80
2019-02-02T12:54:34.769Z,9.90
2019-02-02T12:57:02.261Z,9.90
2019-02-02T12:59:29.725Z,9.90
2019-02-02T13:01:57.169Z,10.20
2019-02-02T13:04:24.735Z,10.40
2019-02-02T13:06:52.318Z,10.40
2019-02-02T13:09:19.856Z,9.80
2019-02-02T13:11:47.681Z,9.90
2019-02-02T13:14:15.511Z,10.30
2019-02-02T13:16:42.948Z,10.70
2019-02-02T13:19:10.364Z,11.10
2019-02-02T13:21:37.792Z,11.50
2019-02-02T13:24:05.279Z,11.80
2019-02-02T13:26:33.026Z,12.30
2019-02-02T13:29:00.410Z,12.90
2019-02-02T13:31:28.213Z,13.40
2019-02-02T13:33:55.658Z,14.00
2019-02-02T13:36:23.048Z,14.30
2019-02-02T13:38:50.488Z,14.20
2019-02-02T13:41:18.732Z,14.30
2019-02-02T13:43:46.059Z,14.00
2019-02-02T13:46:13.516Z,14.20
2019-02-02T13:48:40.938Z,13.80
2019-02-02T13:51:08.389Z,13.40
2019-02-02T13:53:35.811Z,13.10
2019-02-02T13:56:03.527Z,13.00
2019-02-02T13:58:30.974Z,12.90
2019-02-02T14:00:58.352Z,14.00
2019-02-02T14:03:25.841Z,15.90
2019-02-02T14:05:53.308Z,17.80
2019-02-02T14:08:20.654Z,19.30
2019-02-02T14:10:48.345Z,19.90
2019-02-02T14:13:15.733Z,19.90
2019-02-02T14:15:43.068Z,20.00
2019-02-02T14:18:10.585Z,20.60
2019-02-02T14:20:37.989Z,20.90
2019-02-02T14:23:05.456Z,20.80
2019-02-02T14:25:32.940Z,20.40
2019-02-02T14:28:00.347Z,19.90
2019-02-02T14:30:27.870Z,20.10
2019-02-02T14:32:55.491Z,20.50
2019-02-02T14:35:24.520Z,20.40
2019-02-02T14:37:51.858Z,20.30
2019-02-02T14:40:19.565Z,19.30
2019-02-02T14:42:47.011Z,17.90
2019-02-02T14:45:16.342Z,17.00
2019-02-02T14:47:43.798Z,16.10
2019-02-02T14:50:14.201Z,15.30
2019-02-02T14:52:42.757Z,14.60
2019-02-02T14:55:12.055Z,14.20
2019-02-02T14:57:39.824Z,13.80
2019-02-02T15:00:10.931Z,13.40
2019-02-02T15:02:38.533Z,13.10
2019-02-02T15:05:08.331Z,12.80
2019-02-02T15:07:36.486Z,12.60
2019-02-02T15:10:04.271Z,12.50
2019-02-02T15:12:33.628Z,12.30
2019-02-02T15:15:01.071Z,12.30
2019-02-02T15:17:28.952Z,12.30
2019-02-02T15:19:56.363Z,12.60
2019-02-02T15:22:23.798Z,12.80
2019-02-02T15:24:51.257Z,12.80
2019-02-02T15:27:18.681Z,12.70
2019-02-02T15:29:46.093Z,12.50
2019-02-02T15:32:13.515Z,12.30
2019-02-02T15:34:40.956Z,12.00
2019-02-02T15:37:08.488Z,11.80
2019-02-02T15:39:35.929Z,11.60
2019-02-02T15:42:03.407Z,11.40
2019-02-02T15:44:31.143Z,11.30
2019-02-02T15:46:58.601Z,11.20
2019-02-02T15:49:26.035Z,11.10
2019-02-02T15:51:53.483Z,10.90
2019-02-02T15:54:20.790Z,10.80
2019-02-02T15:56:48.124Z,10.70
2019-02-02T15:59:15.454Z,10.70
2019-02-02T16:01:42.939Z,10.60
2019-02-02T16:04:10.487Z,10.50
2019-02-02T16:06:37.992Z,10.40
2019-02-02T16:09:08.192Z,10.30
2019-02-02T16:11:35.689Z,10.20
2019-02-02T16:14:03.303Z,10.20
2019-02-02T16:16:30.985Z,10.10
2019-02-02T16:18:58.332Z,10.00
2019-02-02T16:21:26.076Z,9.90
2019-02-02T16:23:53.448Z,9.80
2019-02-02T16:26:20.821Z,9.80
2019-02-02T16:28:48.173Z,9.70
2019-02-02T16:31:15.546Z,9.60
2019-02-02T16:33:43.023Z,9.60
2019-02-02T16:36:10.494Z,9.50
2019-02-02T16:38:38.282Z,9.40
2019-02-02T16:41:05.665Z,9.40
2019-02-02T16:43:33.008Z,9.30
2019-02-02T16:46:00.328Z,9.30
2019-02-02T16:48:27.783Z,9.20
2019-02-02T16:50:56.816Z,9.20
2019-02-02T16:53:24.461Z,9.10
2019-02-02T16:55:51.890Z,9.10
2019-02-02T16:58:19.247Z,9.10
2019-02-02T17:00:46.690Z,9.00
2019-02-02T17:03:14.146Z,9.00
2019-02-02T17:05:41.610Z,9.00
2019-02-02T17:08:09.028Z,8.90
2019-02-02T17:10:36.914Z,9.00
2019-02-02T17:13:05.361Z,8.90
2019-02-02T17:15:33.769Z,8.80
2019-02-02T17:18:01.236Z,8.70
2019-02-02T17:20:31.418Z,8.80
2019-02-02T17:22:58.988Z,8.80
2019-02-02T17:25:26.362Z,8.60
2019-02-02T17:27:53.821Z,8.70
2019-02-02T17:30:21.921Z,8.60
2019-02-02T17:32:50.833Z,8.70
2019-02-02T17:35:21.222Z,8.50
2019-02-02T17:37:48.676Z,8.50
2019-02-02T17:40:18.388Z,8.60
2019-02-02T17:42:45.979Z,8.60
2019-02-02T17:45:14.865Z,8.60
2019-02-02T17:47:42.275Z,8.60
2019-02-02T17:50:14.528Z,8.50
2019-02-02T17:52:42.003Z,8.60
2019-02-02T17:55:09.548Z,8.60
2019-02-02T17:57:37.298Z,8.60
2019-02-02T18:00:07.644Z,8.70
2019-02-02T18:02:35.174Z,8.70
2019-02-02T18:05:03.266Z,8.70
2019-02-02T18:07:30.721Z,8.80
2019-02-02T18:09:58.127Z,8.80
2019-02-02T18:12:25.555Z,8.80
2019-02-02T18:14:53.046Z,8.80
2019-02-02T18:17:20.502Z,8.90
2019-02-02T18:19:47.966Z,8.80
2019-02-02T18:22:17.849Z,8.80
2019-02-02T18:24:45.285Z,8.90
2019-02-02T18:27:13.579Z,8.90
2019-02-02T18:29:41.067Z,8.90
2019-02-02T18:32:13.358Z,8.90
2019-02-02T18:34:38.095Z,8.90
2019-02-02T18:37:05.558Z,8.90
2019-02-02T18:39:32.956Z,8.90
2019-02-02T18:42:00.420Z,8.90
2019-02-02T18:44:27.778Z,9.00
2019-02-02T18:46:55.175Z,8.90
2019-02-02T18:49:22.978Z,8.90
2019-02-02T18:51:50.734Z,8.90
2019-02-02T18:54:18.256Z,8.90
2019-02-02T18:56:46.019Z,8.90
2019-02-02T18:59:13.801Z,8.80
2019-02-02T19:01:41.964Z,8.80
2019-02-02T19:04:09.624Z,8.80
2019-02-02T19:06:37.035Z,8.80
2019-02-02T19:09:06.748Z,8.80
2019-02-02T19:11:34.151Z,8.80
2019-02-02T19:14:01.625Z,8.80
2019-02-02T19:16:29.206Z,8.80
2019-02-02T19:18:57.130Z,8.90
2019-02-02T19:21:24.582Z,8.80
2019-02-02T19:23:52.691Z,8.80
2019-02-02T19:26:20.132Z,8.80
2019-02-02T19:28:47.698Z,8.80
2019-02-02T19:31:15.218Z,8.90
2019-02-02T19:33:42.709Z,8.90
2019-02-02T19:36:10.175Z,8.90
2019-02-02T19:38:37.673Z,8.90
2019-02-02T19:41:05.120Z,8.90
2019-02-02T19:43:32.495Z,8.90
2019-02-02T19:45:59.997Z,9.00
2019-02-02T19:48:27.507Z,9.00
2019-02-02T19:50:55.078Z,9.00
2019-02-02T19:53:22.583Z,9.00
2019-02-02T19:55:50.042Z,9.10
2019-02-02T19:58:17.553Z,9.00
2019-02-02T20:00:45.102Z,9.10
2019-02-02T20:03:12.665Z,9.10
2019-02-02T20:05:40.266Z,9.10
2019-02-02T20:08:07.753Z,9.10
2019-02-02T20:10:35.208Z,9.20
2019-02-02T20:13:02.694Z,9.20
2019-02-02T20:15:30.267Z,9.10
2019-02-02T20:18:08.974Z,9.20
2019-02-02T20:20:27.958Z,9.20
2019-02-02T20:22:55.644Z,9.10
2019-02-02T20:25:23.231Z,9.20
2019-02-02T20:27:50.716Z,9.30
2019-02-02T20:30:20.877Z,9.20
2019-02-02T20:32:48.347Z,9.20
2019-02-02T20:35:15.850Z,9.20
2019-02-02T20:37:43.360Z,9.30
2019-02-02T20:40:13.556Z,9.20
2019-02-02T20:42:41.091Z,9.20
2019-02-02T20:45:10.920Z,9.20
2019-02-02T20:47:38.409Z,9.10
2019-02-02T20:50:09.259Z,9.20
2019-02-02T20:52:46.947Z,9.10
2019-02-02T20:55:08.427Z,9.20
2019-02-02T20:57:35.938Z,9.10
2019-02-02T21:00:05.244Z,9.20
2019-02-02T21:02:32.712Z,9.20
2019-02-02T21:05:00.336Z,9.20
2019-02-02T21:07:28.112Z,9.20
2019-02-02T21:09:55.743Z,9.20
2019-02-02T21:12:23.245Z,9.20
2019-02-02T21:14:51.201Z,9.20
2019-02-02T21:17:19.024Z,9.10
2019-02-02T21:19:46.619Z,9.20
2019-02-02T21:22:14.101Z,9.20
2019-02-02T21:24:41.556Z,9.20
2019-02-02T21:27:09.431Z,9.20
2019-02-02T21:29:37.820Z,9.10
2019-02-02T21:32:05.335Z,9.10
2019-02-02T21:34:32.825Z,9.10
2019-02-02T21:37:00.307Z,9.10
2019-02-02T21:39:28.089Z,9.10
2019-02-02T21:41:55.693Z,9.10
2019-02-02T21:44:23.503Z,9.10
2019-02-02T21:46:51.001Z,9.10
2019-02-02T21:49:18.694Z,9.10
2019-02-02T21:51:46.183Z,9.10
2019-02-02T21:54:13.712Z,9.10
2019-02-02T21:56:41.431Z,9.10
2019-02-02T21:59:08.882Z,9.10
2019-02-02T22:01:36.367Z,9.10
2019-02-02T22:04:04.521Z,9.10
2019-02-02T22:06:44.648Z,9.10
2019-02-02T22:09:12.171Z,9.10
2019-02-02T22:11:39.633Z,9.20
2019-02-02T22:14:07.184Z,9.10
2019-02-02T22:16:34.637Z,9.20
2019-02-02T22:19:02.106Z,9.20
2019-02-02T22:21:29.558Z,9.20
2019-02-02T22:23:57.362Z,9.10
2019-02-02T22:26:24.793Z,9.10
2019-02-02T22:28:52.335Z,9.10
2019-02-02T22:31:19.806Z,9.10
2019-02-02T22:33:47.240Z,9.10
2019-02-02T22:36:14.700Z,9.10
2019-02-02T22:38:43.934Z,9.10
2019-02-02T22:41:11.364Z,9.10
2019-02-02T22:43:39.133Z,9.10
2019-02-02T22:46:06.580Z,9.10
2019-02-02T22:48:33.986Z,9.10
2019-02-02T22:51:01.419Z,9.10
2019-02-02T22:53:28.873Z,9.10
2019-02-02T22:55:56.350Z,9.00
2019-02-02T22:58:24.606Z,9.10
2019-02-02T23:01:29.975Z,9.10
2019-02-02T23:04:42.468Z,9.10
2019-02-02T23:07:43.132Z,9.00
2019-02-02T23:10:49.218Z,9.00
2019-02-02T23:14:10.693Z,9.00
2019-02-02T23:16:38.127Z,9.00
2019-02-02T23:19:05.730Z,8.90
2019-02-02T23:21:33.155Z,8.90
2019-02-02T23:24:00.622Z,8.90
2019-02-02T23:26:28.069Z,8.90
2019-02-02T23:28:55.520Z,8.90
2019-02-02T23:31:23.488Z,8.90
2019-02-02T23:33:50.901Z,8.90
2019-02-02T23:36:18.348Z,8.90
2019-02-02T23:38:45.812Z,8.90
2019-02-02T23:41:13.320Z,8.90
2019-02-02T23:43:40.837Z,8.90
2019-02-02T23:46:08.553Z,8.90
2019-02-02T23:48:36.375Z,8.90
2019-02-02T23:51:04.257Z,8.90
2019-02-02T23:53:31.708Z,8.90
2019-02-02T23:55:59.116Z,8.90
2019-02-02T23:58:26.553Z,8.90
